Sidney Municipal-Lloyd W Carr Field
KSNY : now visible

Airfield :











YOU CAN JOIN US ON...

 
LOGIN :

Register | Disclaimer

   EN    FR    IT 

 









Legend :    VFR   Marginal VFR   IFR   Intensive IFR   Very Intensive IFR
Visi :
Ceiling :
>= 8 km
>= 3000ft
5 to 8 km
1000 to 3000 ft
1500m to 5 km
500 to 1000 ft
800 to 1500m
200 to 500 ft
< 800m
< 200 ft
Symbols :   Thunderstorms  Fog  Heavy snow  Heavy precipitations  Wind > 20 kt







- Airport Elevation : 4313 ft


KSNY - Sidney Municipal-Lloyd W Carr Field

CURRENT METAR :
  • 211653Z AUTO 30018G24KT 10SM CLR 22/M04 A3001 RMK AO2 SLP116 T02221039

EXPIRED METARs :
  • 211553Z AUTO 31013KT 10SM CLR 18/M02 A3002 RMK AO2 SLP119 T01831017
  • 211453Z AUTO 33010KT 10SM CLR 16/M01 A3001 RMK AO2 SLP121 T01561011 51013

TAF KSNY
Valid from the 21 at 12:00 until the 22 at 12:00 UTC


211120Z 2112/2212 32012KT P6SM SCT250
FM211300 31020G28KT P6SM SKC
FM220000 34008KT P6SM SCT120
FM220500 VRB04KT P6SM SCT100
No reported NOTAMs for that airfield.



MET'MAP, your aeronautical weather chart ! - Copyright ORBIFLY December 2007 - Disclaimer

ORBIFLY MET'MAP TEAM :

Programming & Development : Alexandra Zaïnal
Concept & Development : Baudouin d'Aumeries
Co-Development & Prog : Marc-Olivier Méhu
Technical & hardware support : Manuel Goepfert

Contact : metmap@orbifly.com




SOURCES & CREDITS :

   NOAA       Earth
Advisory